Elliott, South Carolina
Current Conditions -  °F | °C
As of 8:15 PM on Sunday 23 Nov 2014 (Local Time) from KSMS Reporting Station
Thunderstorm Thunderstorm  
Wind Chill: 66°   Ceiling: 800
Heat Index: 66°   Visibility: 8mi
Dew Point: 66°   Wind: 10mph
Humidity: 100%   Direction: 140°SE
Pressure: 29.82"   Gusts: NA
Location:  34.11°N, 80.16°W
Report Text: KSMS 240115Z AUTO 14009KT 8SM VCTS DZ OVC008 19/19 A2982 RMK AO2 LTG DSNT ALQDS
Loading
Personal Weather Stations






























Interactive Weather Map New forecast layout! Learn more

10-Day Weather Forecast

Advertisements
Track Severe Weather on mobile